sensor_id;sensor_type;location;lat;lon;timestamp;pressure;altitude;pressure_sealevel;temperature
71463;BMP180;59266;52.608;13.260;2022-12-07T00:01:14;100850.00;;;2.80
71463;BMP180;59266;52.608;13.260;2022-12-07T00:03:42;100835.00;;;2.80
71463;BMP180;59266;52.608;13.260;2022-12-07T00:06:11;100844.00;;;2.80
71463;BMP180;59266;52.608;13.260;2022-12-07T00:08:38;100832.00;;;2.70
71463;BMP180;59266;52.608;13.260;2022-12-07T00:11:10;100838.00;;;2.70
71463;BMP180;59266;52.608;13.260;2022-12-07T00:13:37;100819.00;;;2.70
71463;BMP180;59266;52.608;13.260;2022-12-07T00:16:09;100826.00;;;2.90
71463;BMP180;59266;52.608;13.260;2022-12-07T00:18:36;100827.00;;;2.80
71463;BMP180;59266;52.608;13.260;2022-12-07T00:21:10;100830.00;;;2.70
71463;BMP180;59266;52.608;13.260;2022-12-07T00:23:37;100817.00;;;2.60
71463;BMP180;59266;52.608;13.260;2022-12-07T00:26:10;100810.00;;;2.80
71463;BMP180;59266;52.608;13.260;2022-12-07T00:28:37;100814.00;;;2.90
71463;BMP180;59266;52.608;13.260;2022-12-07T00:31:09;100818.00;;;2.80
71463;BMP180;59266;52.608;13.260;2022-12-07T00:33:36;100814.00;;;2.80
71463;BMP180;59266;52.608;13.260;2022-12-07T00:36:05;100806.00;;;2.70
71463;BMP180;59266;52.608;13.260;2022-12-07T00:38:34;100817.00;;;2.80
71463;BMP180;59266;52.608;13.260;2022-12-07T00:41:03;100802.00;;;2.70
71463;BMP180;59266;52.608;13.260;2022-12-07T00:43:30;100805.00;;;2.60
71463;BMP180;59266;52.608;13.260;2022-12-07T00:45:57;100801.00;;;2.40
71463;BMP180;59266;52.608;13.260;2022-12-07T00:48:24;100798.00;;;2.30
71463;BMP180;59266;52.608;13.260;2022-12-07T00:50:50;100798.00;;;2.20
71463;BMP180;59266;52.608;13.260;2022-12-07T00:53:17;100796.00;;;2.20
71463;BMP180;59266;52.608;13.260;2022-12-07T00:55:44;100791.00;;;2.20
71463;BMP180;59266;52.608;13.260;2022-12-07T00:58:11;100790.00;;;2.20
71463;BMP180;59266;52.608;13.260;2022-12-07T01:00:39;100790.00;;;2.30
71463;BMP180;59266;52.608;13.260;2022-12-07T01:03:07;100784.00;;;2.40
71463;BMP180;59266;52.608;13.260;2022-12-07T01:05:34;100786.00;;;2.30
71463;BMP180;59266;52.608;13.260;2022-12-07T01:08:01;100789.00;;;2.40
71463;BMP180;59266;52.608;13.260;2022-12-07T01:10:27;100782.00;;;2.40
71463;BMP180;59266;52.608;13.260;2022-12-07T01:12:56;100791.00;;;2.40
71463;BMP180;59266;52.608;13.260;2022-12-07T01:15:22;100777.00;;;2.40
71463;BMP180;59266;52.608;13.260;2022-12-07T01:17:49;100772.00;;;2.40
71463;BMP180;59266;52.608;13.260;2022-12-07T01:20:16;100770.00;;;2.40
71463;BMP180;59266;52.608;13.260;2022-12-07T01:22:43;100772.00;;;2.30
71463;BMP180;59266;52.608;13.260;2022-12-07T01:25:11;100764.00;;;2.20
71463;BMP180;59266;52.608;13.260;2022-12-07T01:27:37;100771.00;;;2.20
71463;BMP180;59266;52.608;13.260;2022-12-07T01:30:05;100778.00;;;2.20
71463;BMP180;59266;52.608;13.260;2022-12-07T01:32:33;100768.00;;;2.30
71463;BMP180;59266;52.608;13.260;2022-12-07T01:35:00;100761.00;;;2.20
71463;BMP180;59266;52.608;13.260;2022-12-07T01:37:26;100769.00;;;2.20
71463;BMP180;59266;52.608;13.260;2022-12-07T01:39:52;100760.00;;;2.20
71463;BMP180;59266;52.608;13.260;2022-12-07T01:42:19;100758.00;;;2.30
71463;BMP180;59266;52.608;13.260;2022-12-07T01:47:53;100757.00;;;2.30
71463;BMP180;59266;52.608;13.260;2022-12-07T01:50:24;100747.00;;;2.20
71463;BMP180;59266;52.608;13.260;2022-12-07T01:52:53;100750.00;;;2.30
71463;BMP180;59266;52.608;13.260;2022-12-07T01:55:20;100742.00;;;2.20
71463;BMP180;59266;52.608;13.260;2022-12-07T01:57:49;100741.00;;;2.20
71463;BMP180;59266;52.608;13.260;2022-12-07T02:00:16;100735.00;;;2.10
71463;BMP180;59266;52.608;13.260;2022-12-07T02:02:47;100739.00;;;2.30
71463;BMP180;59266;52.608;13.260;2022-12-07T02:05:16;100741.00;;;2.20
71463;BMP180;59266;52.608;13.260;2022-12-07T02:07:45;100734.00;;;2.10
71463;BMP180;59266;52.608;13.260;2022-12-07T02:10:19;100727.00;;;2.20
71463;BMP180;59266;52.608;13.260;2022-12-07T02:12:51;100728.00;;;2.10
71463;BMP180;59266;52.608;13.260;2022-12-07T02:15:21;100718.00;;;2.10
71463;BMP180;59266;52.608;13.260;2022-12-07T02:18:08;100723.00;;;2.20
71463;BMP180;59266;52.608;13.260;2022-12-07T02:23:34;100726.00;;;2.00
71463;BMP180;59266;52.608;13.260;2022-12-07T02:29:16;100712.00;;;1.80
71463;BMP180;59266;52.608;13.260;2022-12-07T02:31:51;100714.00;;;1.80
71463;BMP180;59266;52.608;13.260;2022-12-07T02:36:57;100696.00;;;1.80
71463;BMP180;59266;52.608;13.260;2022-12-07T02:39:42;100706.00;;;1.90
71463;BMP180;59266;52.608;13.260;2022-12-07T02:42:22;100695.00;;;1.90
71463;BMP180;59266;52.608;13.260;2022-12-07T02:44:50;100693.00;;;1.80
71463;BMP180;59266;52.608;13.260;2022-12-07T02:47:19;100686.00;;;1.80
71463;BMP180;59266;52.608;13.260;2022-12-07T02:49:49;100680.00;;;1.80
71463;BMP180;59266;52.608;13.260;2022-12-07T02:52:15;100675.00;;;1.70
71463;BMP180;59266;52.608;13.260;2022-12-07T02:54:42;100676.00;;;1.60
71463;BMP180;59266;52.608;13.260;2022-12-07T02:57:28;100665.00;;;1.70
71463;BMP180;59266;52.608;13.260;2022-12-07T03:00:07;100671.00;;;1.60
71463;BMP180;59266;52.608;13.260;2022-12-07T03:02:49;100666.00;;;1.60
71463;BMP180;59266;52.608;13.260;2022-12-07T03:05:41;100667.00;;;1.60
71463;BMP180;59266;52.608;13.260;2022-12-07T03:08:13;100662.00;;;1.70
71463;BMP180;59266;52.608;13.260;2022-12-07T03:13:26;100651.00;;;1.70
71463;BMP180;59266;52.608;13.260;2022-12-07T03:18:34;100640.00;;;1.80
71463;BMP180;59266;52.608;13.260;2022-12-07T03:21:06;100637.00;;;1.80
71463;BMP180;59266;52.608;13.260;2022-12-07T03:23:35;100629.00;;;1.80
71463;BMP180;59266;52.608;13.260;2022-12-07T03:26:04;100625.00;;;1.90
71463;BMP180;59266;52.608;13.260;2022-12-07T03:28:35;100624.00;;;1.90
71463;BMP180;59266;52.608;13.260;2022-12-07T03:31:07;100610.00;;;2.00
71463;BMP180;59266;52.608;13.260;2022-12-07T03:33:47;100615.00;;;1.90
71463;BMP180;59266;52.608;13.260;2022-12-07T03:36:28;100605.00;;;1.80
71463;BMP180;59266;52.608;13.260;2022-12-07T03:39:12;100600.00;;;1.90
71463;BMP180;59266;52.608;13.260;2022-12-07T03:41:40;100604.00;;;2.00
71463;BMP180;59266;52.608;13.260;2022-12-07T03:44:11;100600.00;;;1.90
71463;BMP180;59266;52.608;13.260;2022-12-07T03:46:55;100590.00;;;2.00
71463;BMP180;59266;52.608;13.260;2022-12-07T03:49:47;100594.00;;;2.00
71463;BMP180;59266;52.608;13.260;2022-12-07T03:52:33;100589.00;;;2.00
71463;BMP180;59266;52.608;13.260;2022-12-07T03:55:20;100588.00;;;2.00
71463;BMP180;59266;52.608;13.260;2022-12-07T03:57:52;100578.00;;;2.00
71463;BMP180;59266;52.608;13.260;2022-12-07T04:00:20;100576.00;;;2.10
71463;BMP180;59266;52.608;13.260;2022-12-07T04:02:47;100565.00;;;2.10
71463;BMP180;59266;52.608;13.260;2022-12-07T04:05:14;100570.00;;;2.10
71463;BMP180;59266;52.608;13.260;2022-12-07T04:07:40;100563.00;;;2.20
71463;BMP180;59266;52.608;13.260;2022-12-07T04:10:07;100572.00;;;2.30
71463;BMP180;59266;52.608;13.260;2022-12-07T04:12:34;100561.00;;;2.20
71463;BMP180;59266;52.608;13.260;2022-12-07T04:15:00;100559.00;;;2.10
71463;BMP180;59266;52.608;13.260;2022-12-07T04:17:27;100555.00;;;2.20
71463;BMP180;59266;52.608;13.260;2022-12-07T04:19:54;100550.00;;;2.30
71463;BMP180;59266;52.608;13.260;2022-12-07T04:22:21;100547.00;;;2.30
71463;BMP180;59266;52.608;13.260;2022-12-07T04:24:47;100541.00;;;2.20
71463;BMP180;59266;52.608;13.260;2022-12-07T04:27:14;100546.00;;;2.30
71463;BMP180;59266;52.608;13.260;2022-12-07T04:29:40;100529.00;;;2.20
71463;BMP180;59266;52.608;13.260;2022-12-07T04:32:07;100528.00;;;2.30
71463;BMP180;59266;52.608;13.260;2022-12-07T04:34:33;100537.00;;;2.30
71463;BMP180;59266;52.608;13.260;2022-12-07T04:36:59;100536.00;;;2.20
71463;BMP180;59266;52.608;13.260;2022-12-07T04:39:28;100537.00;;;2.20
71463;BMP180;59266;52.608;13.260;2022-12-07T04:41:55;100534.00;;;2.20
71463;BMP180;59266;52.608;13.260;2022-12-07T04:44:23;100531.00;;;2.20
71463;BMP180;59266;52.608;13.260;2022-12-07T04:46:50;100537.00;;;2.30
71463;BMP180;59266;52.608;13.260;2022-12-07T04:49:17;100525.00;;;2.20
71463;BMP180;59266;52.608;13.260;2022-12-07T04:51:45;100535.00;;;2.30
71463;BMP180;59266;52.608;13.260;2022-12-07T04:54:12;100527.00;;;2.40
71463;BMP180;59266;52.608;13.260;2022-12-07T04:56:39;100530.00;;;2.30
71463;BMP180;59266;52.608;13.260;2022-12-07T04:59:06;100522.00;;;2.40
71463;BMP180;59266;52.608;13.260;2022-12-07T05:01:32;100526.00;;;2.50
71463;BMP180;59266;52.608;13.260;2022-12-07T05:03:59;100514.00;;;2.50
71463;BMP180;59266;52.608;13.260;2022-12-07T05:06:26;100515.00;;;2.60
71463;BMP180;59266;52.608;13.260;2022-12-07T05:08:52;100522.00;;;2.60
71463;BMP180;59266;52.608;13.260;2022-12-07T05:11:19;100514.00;;;2.50
71463;BMP180;59266;52.608;13.260;2022-12-07T05:14:11;100509.00;;;2.60
71463;BMP180;59266;52.608;13.260;2022-12-07T05:16:39;100505.00;;;2.60
71463;BMP180;59266;52.608;13.260;2022-12-07T05:19:06;100509.00;;;2.70
71463;BMP180;59266;52.608;13.260;2022-12-07T05:21:33;100506.00;;;2.80
71463;BMP180;59266;52.608;13.260;2022-12-07T05:24:00;100504.00;;;2.80
71463;BMP180;59266;52.608;13.260;2022-12-07T05:26:26;100499.00;;;2.70
71463;BMP180;59266;52.608;13.260;2022-12-07T05:28:54;100502.00;;;2.80
71463;BMP180;59266;52.608;13.260;2022-12-07T05:31:21;100499.00;;;2.70
71463;BMP180;59266;52.608;13.260;2022-12-07T05:33:49;100500.00;;;2.80
71463;BMP180;59266;52.608;13.260;2022-12-07T05:36:15;100487.00;;;2.90
71463;BMP180;59266;52.608;13.260;2022-12-07T05:38:42;100480.00;;;2.90
71463;BMP180;59266;52.608;13.260;2022-12-07T05:41:12;100476.00;;;2.90
71463;BMP180;59266;52.608;13.260;2022-12-07T05:43:59;100482.00;;;3.00
71463;BMP180;59266;52.608;13.260;2022-12-07T05:46:26;100482.00;;;3.00
71463;BMP180;59266;52.608;13.260;2022-12-07T05:48:53;100476.00;;;3.00
71463;BMP180;59266;52.608;13.260;2022-12-07T05:51:21;100465.00;;;3.00
71463;BMP180;59266;52.608;13.260;2022-12-07T05:53:47;100462.00;;;3.00
71463;BMP180;59266;52.608;13.260;2022-12-07T05:56:14;100454.00;;;3.10
71463;BMP180;59266;52.608;13.260;2022-12-07T05:58:41;100468.00;;;3.20
71463;BMP180;59266;52.608;13.260;2022-12-07T06:01:25;100462.00;;;3.10
71463;BMP180;59266;52.608;13.260;2022-12-07T06:03:52;100460.00;;;3.10
71463;BMP180;59266;52.608;13.260;2022-12-07T06:06:19;100456.00;;;3.20
71463;BMP180;59266;52.608;13.260;2022-12-07T06:08:45;100461.00;;;3.20
71463;BMP180;59266;52.608;13.260;2022-12-07T06:11:12;100449.00;;;3.20
71463;BMP180;59266;52.608;13.260;2022-12-07T06:13:57;100461.00;;;3.20
71463;BMP180;59266;52.608;13.260;2022-12-07T06:16:23;100449.00;;;3.10
71463;BMP180;59266;52.608;13.260;2022-12-07T06:18:50;100452.00;;;3.10
71463;BMP180;59266;52.608;13.260;2022-12-07T06:21:16;100452.00;;;3.10
71463;BMP180;59266;52.608;13.260;2022-12-07T06:23:43;100453.00;;;3.20
71463;BMP180;59266;52.608;13.260;2022-12-07T06:26:10;100449.00;;;3.20
71463;BMP180;59266;52.608;13.260;2022-12-07T06:28:36;100450.00;;;3.20
71463;BMP180;59266;52.608;13.260;2022-12-07T06:31:03;100447.00;;;3.20
71463;BMP180;59266;52.608;13.260;2022-12-07T06:33:34;100450.00;;;3.20
71463;BMP180;59266;52.608;13.260;2022-12-07T06:36:01;100451.00;;;3.30
71463;BMP180;59266;52.608;13.260;2022-12-07T06:38:27;100446.00;;;3.30
71463;BMP180;59266;52.608;13.260;2022-12-07T06:40:54;100439.00;;;3.20
71463;BMP180;59266;52.608;13.260;2022-12-07T06:43:21;100438.00;;;3.20
71463;BMP180;59266;52.608;13.260;2022-12-07T06:45:47;100440.00;;;3.30
71463;BMP180;59266;52.608;13.260;2022-12-07T06:48:14;100436.00;;;3.30
71463;BMP180;59266;52.608;13.260;2022-12-07T06:50:45;100449.00;;;3.40
71463;BMP180;59266;52.608;13.260;2022-12-07T06:53:19;100441.00;;;3.30
71463;BMP180;59266;52.608;13.260;2022-12-07T06:55:46;100446.00;;;3.30
71463;BMP180;59266;52.608;13.260;2022-12-07T06:58:12;100448.00;;;3.30
71463;BMP180;59266;52.608;13.260;2022-12-07T07:00:39;100439.00;;;3.30
71463;BMP180;59266;52.608;13.260;2022-12-07T07:03:05;100432.00;;;3.40
71463;BMP180;59266;52.608;13.260;2022-12-07T07:05:32;100442.00;;;3.30
71463;BMP180;59266;52.608;13.260;2022-12-07T07:07:59;100441.00;;;3.40
71463;BMP180;59266;52.608;13.260;2022-12-07T07:10:45;100435.00;;;3.40
71463;BMP180;59266;52.608;13.260;2022-12-07T07:13:13;100438.00;;;3.50
71463;BMP180;59266;52.608;13.260;2022-12-07T07:15:39;100435.00;;;3.50
71463;BMP180;59266;52.608;13.260;2022-12-07T07:18:06;100435.00;;;3.50
71463;BMP180;59266;52.608;13.260;2022-12-07T07:20:34;100435.00;;;3.50
71463;BMP180;59266;52.608;13.260;2022-12-07T07:23:01;100440.00;;;3.50
71463;BMP180;59266;52.608;13.260;2022-12-07T07:25:28;100434.00;;;3.50
71463;BMP180;59266;52.608;13.260;2022-12-07T07:27:54;100436.00;;;3.60
71463;BMP180;59266;52.608;13.260;2022-12-07T07:30:21;100436.00;;;3.40
71463;BMP180;59266;52.608;13.260;2022-12-07T07:32:48;100442.00;;;3.30
71463;BMP180;59266;52.608;13.260;2022-12-07T07:35:14;100441.00;;;3.40
71463;BMP180;59266;52.608;13.260;2022-12-07T07:37:41;100445.00;;;3.50
71463;BMP180;59266;52.608;13.260;2022-12-07T07:40:09;100448.00;;;3.40
71463;BMP180;59266;52.608;13.260;2022-12-07T07:42:35;100443.00;;;3.50
71463;BMP180;59266;52.608;13.260;2022-12-07T07:45:02;100436.00;;;3.50
71463;BMP180;59266;52.608;13.260;2022-12-07T07:47:29;100446.00;;;3.50
71463;BMP180;59266;52.608;13.260;2022-12-07T07:49:55;100442.00;;;3.50
71463;BMP180;59266;52.608;13.260;2022-12-07T07:52:22;100442.00;;;3.50
71463;BMP180;59266;52.608;13.260;2022-12-07T07:54:49;100453.00;;;3.60
71463;BMP180;59266;52.608;13.260;2022-12-07T07:57:16;100455.00;;;3.60
71463;BMP180;59266;52.608;13.260;2022-12-07T07:59:43;100465.00;;;3.60
71463;BMP180;59266;52.608;13.260;2022-12-07T08:02:14;100450.00;;;3.60
71463;BMP180;59266;52.608;13.260;2022-12-07T08:04:41;100446.00;;;3.70
71463;BMP180;59266;52.608;13.260;2022-12-07T08:07:07;100458.00;;;3.70
71463;BMP180;59266;52.608;13.260;2022-12-07T08:09:34;100449.00;;;3.70
71463;BMP180;59266;52.608;13.260;2022-12-07T08:12:00;100461.00;;;3.60
71463;BMP180;59266;52.608;13.260;2022-12-07T08:14:27;100448.00;;;3.70
71463;BMP180;59266;52.608;13.260;2022-12-07T08:16:55;100455.00;;;3.70
71463;BMP180;59266;52.608;13.260;2022-12-07T08:19:21;100459.00;;;3.70
71463;BMP180;59266;52.608;13.260;2022-12-07T08:21:48;100451.00;;;3.70
71463;BMP180;59266;52.608;13.260;2022-12-07T08:24:14;100465.00;;;3.70
71463;BMP180;59266;52.608;13.260;2022-12-07T08:26:41;100463.00;;;3.70
71463;BMP180;59266;52.608;13.260;2022-12-07T08:29:08;100459.00;;;3.80
71463;BMP180;59266;52.608;13.260;2022-12-07T08:31:35;100458.00;;;3.70
71463;BMP180;59266;52.608;13.260;2022-12-07T08:34:01;100469.00;;;3.70
71463;BMP180;59266;52.608;13.260;2022-12-07T08:36:28;100465.00;;;3.70
71463;BMP180;59266;52.608;13.260;2022-12-07T08:38:54;100464.00;;;3.70
71463;BMP180;59266;52.608;13.260;2022-12-07T08:41:41;100473.00;;;3.70
71463;BMP180;59266;52.608;13.260;2022-12-07T08:44:07;100474.00;;;3.70
71463;BMP180;59266;52.608;13.260;2022-12-07T08:46:40;100477.00;;;3.70
71463;BMP180;59266;52.608;13.260;2022-12-07T08:49:13;100472.00;;;3.70
71463;BMP180;59266;52.608;13.260;2022-12-07T08:51:41;100480.00;;;3.80
71463;BMP180;59266;52.608;13.260;2022-12-07T08:54:11;100478.00;;;3.80
71463;BMP180;59266;52.608;13.260;2022-12-07T08:56:38;100476.00;;;3.80
71463;BMP180;59266;52.608;13.260;2022-12-07T08:59:05;100472.00;;;3.90
71463;BMP180;59266;52.608;13.260;2022-12-07T09:01:32;100479.00;;;4.00
71463;BMP180;59266;52.608;13.260;2022-12-07T09:03:59;100485.00;;;4.10
71463;BMP180;59266;52.608;13.260;2022-12-07T09:06:26;100489.00;;;4.00
71463;BMP180;59266;52.608;13.260;2022-12-07T09:08:56;100500.00;;;3.90
71463;BMP180;59266;52.608;13.260;2022-12-07T09:11:24;100503.00;;;3.90
71463;BMP180;59266;52.608;13.260;2022-12-07T09:13:54;100506.00;;;3.90
71463;BMP180;59266;52.608;13.260;2022-12-07T09:16:21;100495.00;;;3.80
71463;BMP180;59266;52.608;13.260;2022-12-07T09:18:48;100492.00;;;3.70
71463;BMP180;59266;52.608;13.260;2022-12-07T09:21:14;100500.00;;;3.70
71463;BMP180;59266;52.608;13.260;2022-12-07T09:23:42;100502.00;;;3.60
71463;BMP180;59266;52.608;13.260;2022-12-07T09:26:09;100497.00;;;3.60
71463;BMP180;59266;52.608;13.260;2022-12-07T09:28:36;100507.00;;;3.70
71463;BMP180;59266;52.608;13.260;2022-12-07T09:31:04;100513.00;;;3.80
71463;BMP180;59266;52.608;13.260;2022-12-07T09:33:59;100516.00;;;3.80
71463;BMP180;59266;52.608;13.260;2022-12-07T09:36:27;100514.00;;;3.70
71463;BMP180;59266;52.608;13.260;2022-12-07T09:38:54;100514.00;;;3.80
71463;BMP180;59266;52.608;13.260;2022-12-07T09:41:21;100526.00;;;3.70
71463;BMP180;59266;52.608;13.260;2022-12-07T09:43:48;100534.00;;;3.70
71463;BMP180;59266;52.608;13.260;2022-12-07T09:46:16;100521.00;;;3.70
71463;BMP180;59266;52.608;13.260;2022-12-07T09:48:45;100538.00;;;3.70
71463;BMP180;59266;52.608;13.260;2022-12-07T09:51:19;100521.00;;;3.70
71463;BMP180;59266;52.608;13.260;2022-12-07T09:53:51;100522.00;;;3.70
71463;BMP180;59266;52.608;13.260;2022-12-07T09:56:19;100529.00;;;3.80
71463;BMP180;59266;52.608;13.260;2022-12-07T09:58:46;100520.00;;;3.70
71463;BMP180;59266;52.608;13.260;2022-12-07T10:01:16;100525.00;;;3.80
71463;BMP180;59266;52.608;13.260;2022-12-07T10:03:52;100515.00;;;3.70
71463;BMP180;59266;52.608;13.260;2022-12-07T10:06:19;100528.00;;;3.70
71463;BMP180;59266;52.608;13.260;2022-12-07T10:08:46;100519.00;;;3.70
71463;BMP180;59266;52.608;13.260;2022-12-07T10:11:13;100521.00;;;3.70
71463;BMP180;59266;52.608;13.260;2022-12-07T10:13:43;100512.00;;;3.60
71463;BMP180;59266;52.608;13.260;2022-12-07T10:18:50;100508.00;;;3.60
71463;BMP180;59266;52.608;13.260;2022-12-07T10:21:25;100510.00;;;3.60
71463;BMP180;59266;52.608;13.260;2022-12-07T10:24:13;100509.00;;;3.70
71463;BMP180;59266;52.608;13.260;2022-12-07T10:29:34;100517.00;;;3.90
71463;BMP180;59266;52.608;13.260;2022-12-07T10:34:41;100521.00;;;3.90
71463;BMP180;59266;52.608;13.260;2022-12-07T10:39:51;100519.00;;;3.90
71463;BMP180;59266;52.608;13.260;2022-12-07T10:42:26;100522.00;;;4.00
71463;BMP180;59266;52.608;13.260;2022-12-07T10:47:49;100520.00;;;4.00
71463;BMP180;59266;52.608;13.260;2022-12-07T10:50:52;100519.00;;;4.00
71463;BMP180;59266;52.608;13.260;2022-12-07T10:53:40;100514.00;;;4.00
71463;BMP180;59266;52.608;13.260;2022-12-07T10:56:21;100520.00;;;3.90
71463;BMP180;59266;52.608;13.260;2022-12-07T10:59:14;100522.00;;;3.70
71463;BMP180;59266;52.608;13.260;2022-12-07T11:01:57;100507.00;;;3.90
71463;BMP180;59266;52.608;13.260;2022-12-07T11:04:50;100511.00;;;3.90
71463;BMP180;59266;52.608;13.260;2022-12-07T11:07:49;100512.00;;;4.00
71463;BMP180;59266;52.608;13.260;2022-12-07T11:10:28;100521.00;;;4.00
71463;BMP180;59266;52.608;13.260;2022-12-07T11:13:11;100518.00;;;4.00
71463;BMP180;59266;52.608;13.260;2022-12-07T11:15:54;100516.00;;;3.90
71463;BMP180;59266;52.608;13.260;2022-12-07T11:18:36;100516.00;;;4.10
71463;BMP180;59266;52.608;13.260;2022-12-07T11:21:38;100517.00;;;4.20
71463;BMP180;59266;52.608;13.260;2022-12-07T11:24:14;100517.00;;;4.20
71463;BMP180;59266;52.608;13.260;2022-12-07T11:27:06;100502.00;;;4.20
71463;BMP180;59266;52.608;13.260;2022-12-07T11:32:16;100494.00;;;4.40
71463;BMP180;59266;52.608;13.260;2022-12-07T11:35:09;100487.00;;;4.30
71463;BMP180;59266;52.608;13.260;2022-12-07T11:37:37;100498.00;;;4.40
71463;BMP180;59266;52.608;13.260;2022-12-07T11:40:33;100496.00;;;4.20
71463;BMP180;59266;52.608;13.260;2022-12-07T11:43:10;100493.00;;;4.10
71463;BMP180;59266;52.608;13.260;2022-12-07T11:45:41;100489.00;;;4.30
71463;BMP180;59266;52.608;13.260;2022-12-07T11:48:15;100487.00;;;4.20
71463;BMP180;59266;52.608;13.260;2022-12-07T11:50:56;100485.00;;;4.50
71463;BMP180;59266;52.608;13.260;2022-12-07T11:53:28;100483.00;;;4.50
71463;BMP180;59266;52.608;13.260;2022-12-07T11:55:58;100474.00;;;4.60
71463;BMP180;59266;52.608;13.260;2022-12-07T12:03:43;100476.00;;;4.40
71463;BMP180;59266;52.608;13.260;2022-12-07T12:06:18;100476.00;;;4.50
71463;BMP180;59266;52.608;13.260;2022-12-07T12:08:46;100476.00;;;4.70
71463;BMP180;59266;52.608;13.260;2022-12-07T12:11:53;100473.00;;;4.90
71463;BMP180;59266;52.608;13.260;2022-12-07T12:20:17;100461.00;;;4.70
71463;BMP180;59266;52.608;13.260;2022-12-07T12:22:51;100454.00;;;4.80
71463;BMP180;59266;52.608;13.260;2022-12-07T12:27:49;100465.00;;;4.80
71463;BMP180;59266;52.608;13.260;2022-12-07T12:30:30;100461.00;;;4.90
71463;BMP180;59266;52.608;13.260;2022-12-07T12:33:03;100456.00;;;4.90
71463;BMP180;59266;52.608;13.260;2022-12-07T12:38:25;100464.00;;;4.90
71463;BMP180;59266;52.608;13.260;2022-12-07T12:40:54;100469.00;;;5.00
71463;BMP180;59266;52.608;13.260;2022-12-07T12:54:21;100455.00;;;4.60
71463;BMP180;59266;52.608;13.260;2022-12-07T12:57:08;100464.00;;;4.60
71463;BMP180;59266;52.608;13.260;2022-12-07T12:59:38;100465.00;;;4.60
71463;BMP180;59266;52.608;13.260;2022-12-07T13:02:26;100456.00;;;4.70
71463;BMP180;59266;52.608;13.260;2022-12-07T13:23:52;100455.00;;;4.70
71463;BMP180;59266;52.608;13.260;2022-12-07T13:26:44;100454.00;;;4.70
71463;BMP180;59266;52.608;13.260;2022-12-07T13:29:19;100460.00;;;4.60
71463;BMP180;59266;52.608;13.260;2022-12-07T13:31:52;100452.00;;;4.70
71463;BMP180;59266;52.608;13.260;2022-12-07T13:34:35;100459.00;;;4.60
71463;BMP180;59266;52.608;13.260;2022-12-07T13:39:46;100462.00;;;4.60
71463;BMP180;59266;52.608;13.260;2022-12-07T13:42:30;100458.00;;;4.60
71463;BMP180;59266;52.608;13.260;2022-12-07T13:44:59;100459.00;;;4.50
71463;BMP180;59266;52.608;13.260;2022-12-07T13:47:41;100458.00;;;4.60
71463;BMP180;59266;52.608;13.260;2022-12-07T13:50:28;100459.00;;;4.60
71463;BMP180;59266;52.608;13.260;2022-12-07T13:52:56;100456.00;;;4.50
71463;BMP180;59266;52.608;13.260;2022-12-07T13:55:23;100457.00;;;4.60
71463;BMP180;59266;52.608;13.260;2022-12-07T13:57:52;100463.00;;;4.50
71463;BMP180;59266;52.608;13.260;2022-12-07T14:00:23;100463.00;;;4.50
71463;BMP180;59266;52.608;13.260;2022-12-07T14:05:40;100467.00;;;4.50
71463;BMP180;59266;52.608;13.260;2022-12-07T14:10:41;100457.00;;;4.50
71463;BMP180;59266;52.608;13.260;2022-12-07T14:15:56;100454.00;;;4.50
71463;BMP180;59266;52.608;13.260;2022-12-07T14:18:29;100454.00;;;4.40
71463;BMP180;59266;52.608;13.260;2022-12-07T14:21:16;100459.00;;;4.40
71463;BMP180;59266;52.608;13.260;2022-12-07T14:23:44;100447.00;;;4.40
71463;BMP180;59266;52.608;13.260;2022-12-07T14:28:40;100449.00;;;4.30
71463;BMP180;59266;52.608;13.260;2022-12-07T14:31:12;100436.00;;;4.30
71463;BMP180;59266;52.608;13.260;2022-12-07T14:33:50;100440.00;;;4.30
71463;BMP180;59266;52.608;13.260;2022-12-07T14:36:17;100439.00;;;4.30
71463;BMP180;59266;52.608;13.260;2022-12-07T14:38:43;100445.00;;;4.30
71463;BMP180;59266;52.608;13.260;2022-12-07T14:41:14;100444.00;;;4.30
71463;BMP180;59266;52.608;13.260;2022-12-07T14:44:00;100438.00;;;4.20
71463;BMP180;59266;52.608;13.260;2022-12-07T14:46:48;100443.00;;;4.00
71463;BMP180;59266;52.608;13.260;2022-12-07T14:49:15;100444.00;;;4.00
71463;BMP180;59266;52.608;13.260;2022-12-07T14:51:58;100444.00;;;4.00
71463;BMP180;59266;52.608;13.260;2022-12-07T14:54:46;100440.00;;;3.80
71463;BMP180;59266;52.608;13.260;2022-12-07T14:57:13;100440.00;;;3.80
71463;BMP180;59266;52.608;13.260;2022-12-07T14:59:40;100442.00;;;3.80
71463;BMP180;59266;52.608;13.260;2022-12-07T15:02:13;100429.00;;;3.80
71463;BMP180;59266;52.608;13.260;2022-12-07T15:04:40;100435.00;;;3.70
71463;BMP180;59266;52.608;13.260;2022-12-07T15:07:19;100446.00;;;3.70
71463;BMP180;59266;52.608;13.260;2022-12-07T15:09:47;100432.00;;;3.60
71463;BMP180;59266;52.608;13.260;2022-12-07T15:12:14;100430.00;;;3.70
71463;BMP180;59266;52.608;13.260;2022-12-07T15:14:40;100428.00;;;3.70
71463;BMP180;59266;52.608;13.260;2022-12-07T15:17:10;100443.00;;;3.70
71463;BMP180;59266;52.608;13.260;2022-12-07T15:19:51;100445.00;;;3.60
71463;BMP180;59266;52.608;13.260;2022-12-07T15:22:17;100435.00;;;3.60
71463;BMP180;59266;52.608;13.260;2022-12-07T15:24:44;100432.00;;;3.50
71463;BMP180;59266;52.608;13.260;2022-12-07T15:27:10;100440.00;;;3.50
71463;BMP180;59266;52.608;13.260;2022-12-07T15:29:37;100438.00;;;3.50
71463;BMP180;59266;52.608;13.260;2022-12-07T15:32:03;100440.00;;;3.40
71463;BMP180;59266;52.608;13.260;2022-12-07T15:34:30;100431.00;;;3.40
71463;BMP180;59266;52.608;13.260;2022-12-07T15:37:06;100440.00;;;3.50
71463;BMP180;59266;52.608;13.260;2022-12-07T15:39:34;100442.00;;;3.60
71463;BMP180;59266;52.608;13.260;2022-12-07T15:42:00;100439.00;;;3.60
71463;BMP180;59266;52.608;13.260;2022-12-07T15:44:27;100428.00;;;3.50
71463;BMP180;59266;52.608;13.260;2022-12-07T15:47:12;100429.00;;;3.50
71463;BMP180;59266;52.608;13.260;2022-12-07T15:49:40;100438.00;;;3.50
71463;BMP180;59266;52.608;13.260;2022-12-07T15:52:06;100430.00;;;3.50